sensor_id;sensor_type;location;lat;lon;timestamp;pressure;altitude;pressure_sealevel;temperature;humidity
7376;BME280;3728;42.266;24.944;2023-08-31T00:00:11;98749.63;;;23.78;55.63
7376;BME280;3728;42.266;24.944;2023-08-31T00:02:39;98743.03;;;23.83;55.84
7376;BME280;3728;42.266;24.944;2023-08-31T00:05:07;98742.03;;;23.73;56.34
7376;BME280;3728;42.266;24.944;2023-08-31T00:07:35;98744.19;;;23.58;56.05
7376;BME280;3728;42.266;24.944;2023-08-31T00:10:02;98747.66;;;23.55;56.00
7376;BME280;3728;42.266;24.944;2023-08-31T00:12:36;98754.22;;;23.51;56.70
7376;BME280;3728;42.266;24.944;2023-08-31T00:15:04;98750.59;;;23.34;57.30
7376;BME280;3728;42.266;24.944;2023-08-31T00:17:31;98752.84;;;23.39;57.04
7376;BME280;3728;42.266;24.944;2023-08-31T00:19:59;98752.50;;;23.37;57.59
7376;BME280;3728;42.266;24.944;2023-08-31T00:22:26;98754.97;;;23.21;58.82
7376;BME280;3728;42.266;24.944;2023-08-31T00:24:53;98757.22;;;23.26;58.55
7376;BME280;3728;42.266;24.944;2023-08-31T00:27:21;98754.41;;;23.37;58.25
7376;BME280;3728;42.266;24.944;2023-08-31T00:29:48;98758.09;;;23.16;59.46
7376;BME280;3728;42.266;24.944;2023-08-31T00:32:19;98756.22;;;23.13;59.63
7376;BME280;3728;42.266;24.944;2023-08-31T00:34:50;98753.72;;;22.99;60.37
7376;BME280;3728;42.266;24.944;2023-08-31T00:37:17;98762.56;;;22.96;60.26
7376;BME280;3728;42.266;24.944;2023-08-31T00:39:46;98761.75;;;22.99;60.72
7376;BME280;3728;42.266;24.944;2023-08-31T00:42:13;98768.78;;;22.86;61.53
7376;BME280;3728;42.266;24.944;2023-08-31T00:44:40;98775.94;;;22.92;61.31
7376;BME280;3728;42.266;24.944;2023-08-31T00:47:07;98766.53;;;22.81;61.65
7376;BME280;3728;42.266;24.944;2023-08-31T00:49:35;98779.81;;;22.88;61.64
7376;BME280;3728;42.266;24.944;2023-08-31T00:52:02;98780.16;;;22.90;61.30
7376;BME280;3728;42.266;24.944;2023-08-31T00:54:29;98779.63;;;22.72;61.93
7376;BME280;3728;42.266;24.944;2023-08-31T00:56:57;98782.91;;;22.83;62.33
7376;BME280;3728;42.266;24.944;2023-08-31T00:59:24;98783.84;;;22.69;63.01
7376;BME280;3728;42.266;24.944;2023-08-31T01:04:38;98788.06;;;22.67;63.63
7376;BME280;3728;42.266;24.944;2023-08-31T01:12:54;98793.59;;;22.83;63.08
7376;BME280;3728;42.266;24.944;2023-08-31T01:15:24;98795.13;;;22.84;64.01
7376;BME280;3728;42.266;24.944;2023-08-31T01:17:54;98801.44;;;22.97;64.46
7376;BME280;3728;42.266;24.944;2023-08-31T01:20:32;98805.59;;;23.01;64.24
7376;BME280;3728;42.266;24.944;2023-08-31T01:23:09;98804.81;;;23.04;62.98
7376;BME280;3728;42.266;24.944;2023-08-31T01:25:41;98806.00;;;23.00;64.28
7376;BME280;3728;42.266;24.944;2023-08-31T01:28:10;98819.75;;;22.98;64.15
7376;BME280;3728;42.266;24.944;2023-08-31T01:30:38;98817.81;;;23.02;64.62
7376;BME280;3728;42.266;24.944;2023-08-31T01:33:05;98822.06;;;22.96;65.94
7376;BME280;3728;42.266;24.944;2023-08-31T01:35:46;98818.94;;;23.05;64.87
7376;BME280;3728;42.266;24.944;2023-08-31T01:38:19;98829.69;;;22.98;65.22
7376;BME280;3728;42.266;24.944;2023-08-31T01:40:58;98827.44;;;22.93;64.55
7376;BME280;3728;42.266;24.944;2023-08-31T01:43:31;98816.78;;;22.89;64.50
7376;BME280;3728;42.266;24.944;2023-08-31T01:46:02;98817.91;;;22.92;65.73
7376;BME280;3728;42.266;24.944;2023-08-31T01:48:38;98820.63;;;22.88;65.15
7376;BME280;3728;42.266;24.944;2023-08-31T01:51:09;98826.00;;;22.85;63.71
7376;BME280;3728;42.266;24.944;2023-08-31T01:53:38;98823.88;;;22.69;63.48
7376;BME280;3728;42.266;24.944;2023-08-31T01:56:10;98826.53;;;22.73;63.01
7376;BME280;3728;42.266;24.944;2023-08-31T01:58:37;98834.53;;;22.73;63.18
7376;BME280;3728;42.266;24.944;2023-08-31T02:01:04;98838.34;;;22.72;64.13
7376;BME280;3728;42.266;24.944;2023-08-31T02:03:31;98832.38;;;22.61;62.90
7376;BME280;3728;42.266;24.944;2023-08-31T02:05:58;98830.44;;;22.61;62.80
7376;BME280;3728;42.266;24.944;2023-08-31T02:08:25;98833.84;;;22.65;62.44
7376;BME280;3728;42.266;24.944;2023-08-31T02:13:22;98843.31;;;22.25;64.46
7376;BME280;3728;42.266;24.944;2023-08-31T02:15:52;98848.66;;;22.22;64.93
7376;BME280;3728;42.266;24.944;2023-08-31T02:18:20;98835.97;;;22.36;64.12
7376;BME280;3728;42.266;24.944;2023-08-31T02:20:47;98835.31;;;22.25;64.75
7376;BME280;3728;42.266;24.944;2023-08-31T02:23:14;98838.78;;;22.22;65.54
7376;BME280;3728;42.266;24.944;2023-08-31T02:25:42;98836.81;;;22.26;64.50
7376;BME280;3728;42.266;24.944;2023-08-31T02:28:09;98840.25;;;22.27;64.98
7376;BME280;3728;42.266;24.944;2023-08-31T02:30:36;98846.00;;;22.25;65.09
7376;BME280;3728;42.266;24.944;2023-08-31T02:33:05;98841.78;;;22.24;64.48
7376;BME280;3728;42.266;24.944;2023-08-31T02:35:32;98840.31;;;22.16;65.06
7376;BME280;3728;42.266;24.944;2023-08-31T02:38:03;98847.59;;;22.16;64.50
7376;BME280;3728;42.266;24.944;2023-08-31T02:40:30;98844.09;;;22.22;64.14
7376;BME280;3728;42.266;24.944;2023-08-31T02:45:24;98839.50;;;22.26;63.92
7376;BME280;3728;42.266;24.944;2023-08-31T02:47:51;98838.78;;;22.19;63.82
7376;BME280;3728;42.266;24.944;2023-08-31T02:50:18;98847.22;;;22.14;63.72
7376;BME280;3728;42.266;24.944;2023-08-31T02:52:45;98847.53;;;22.23;62.72
7376;BME280;3728;42.266;24.944;2023-08-31T02:55:12;98845.63;;;22.20;63.26
7376;BME280;3728;42.266;24.944;2023-08-31T02:57:40;98861.94;;;22.32;62.03
7376;BME280;3728;42.266;24.944;2023-08-31T03:00:07;98856.31;;;22.20;63.28
7376;BME280;3728;42.266;24.944;2023-08-31T03:02:39;98867.03;;;22.09;63.21
7376;BME280;3728;42.266;24.944;2023-08-31T03:05:07;98875.84;;;22.03;63.74
7376;BME280;3728;42.266;24.944;2023-08-31T03:07:34;98879.69;;;22.02;64.00
7376;BME280;3728;42.266;24.944;2023-08-31T03:10:02;98878.25;;;21.83;64.83
7376;BME280;3728;42.266;24.944;2023-08-31T03:12:29;98865.63;;;21.94;64.19
7376;BME280;3728;42.266;24.944;2023-08-31T03:14:57;98873.94;;;22.03;63.19
7376;BME280;3728;42.266;24.944;2023-08-31T03:17:24;98879.69;;;21.98;64.12
7376;BME280;3728;42.266;24.944;2023-08-31T03:19:51;98884.56;;;22.14;63.29
7376;BME280;3728;42.266;24.944;2023-08-31T03:22:18;98887.59;;;22.12;62.50
7376;BME280;3728;42.266;24.944;2023-08-31T03:24:45;98886.47;;;22.10;62.47
7376;BME280;3728;42.266;24.944;2023-08-31T03:27:14;98887.25;;;22.10;62.53
7376;BME280;3728;42.266;24.944;2023-08-31T03:29:43;98883.44;;;22.11;62.83
7376;BME280;3728;42.266;24.944;2023-08-31T03:32:10;98892.22;;;22.08;62.21
7376;BME280;3728;42.266;24.944;2023-08-31T03:34:39;98885.03;;;22.02;62.68
7376;BME280;3728;42.266;24.944;2023-08-31T03:37:06;98888.78;;;22.11;62.41
7376;BME280;3728;42.266;24.944;2023-08-31T03:39:34;98887.59;;;22.16;62.97
7376;BME280;3728;42.266;24.944;2023-08-31T03:42:01;98893.34;;;22.07;63.78
7376;BME280;3728;42.266;24.944;2023-08-31T03:44:29;98889.63;;;21.94;64.68
7376;BME280;3728;42.266;24.944;2023-08-31T03:46:57;98887.00;;;21.87;65.76
7376;BME280;3728;42.266;24.944;2023-08-31T03:49:24;98890.78;;;21.93;66.32
7376;BME280;3728;42.266;24.944;2023-08-31T03:51:51;98893.88;;;21.85;66.68
7376;BME280;3728;42.266;24.944;2023-08-31T03:54:20;98889.34;;;21.67;67.32
7376;BME280;3728;42.266;24.944;2023-08-31T03:56:47;98900.44;;;21.55;67.97
7376;BME280;3728;42.266;24.944;2023-08-31T03:59:14;98900.78;;;21.68;67.35
7376;BME280;3728;42.266;24.944;2023-08-31T04:01:42;98899.69;;;21.58;68.07
7376;BME280;3728;42.266;24.944;2023-08-31T04:04:10;98905.81;;;21.48;68.14
7376;BME280;3728;42.266;24.944;2023-08-31T04:06:39;98909.66;;;21.40;68.56
7376;BME280;3728;42.266;24.944;2023-08-31T04:09:06;98913.47;;;21.39;67.92
7376;BME280;3728;42.266;24.944;2023-08-31T04:11:33;98916.09;;;21.46;68.21
7376;BME280;3728;42.266;24.944;2023-08-31T04:14:02;98925.25;;;21.45;68.44
7376;BME280;3728;42.266;24.944;2023-08-31T04:16:29;98930.59;;;21.42;68.58
7376;BME280;3728;42.266;24.944;2023-08-31T04:18:56;98941.25;;;21.45;68.40
7376;BME280;3728;42.266;24.944;2023-08-31T04:21:23;98939.75;;;21.34;68.78
7376;BME280;3728;42.266;24.944;2023-08-31T04:23:51;98939.75;;;21.34;69.16
7376;BME280;3728;42.266;24.944;2023-08-31T04:26:20;98945.84;;;21.31;68.21
7376;BME280;3728;42.266;24.944;2023-08-31T04:28:47;98951.91;;;21.38;68.27
7376;BME280;3728;42.266;24.944;2023-08-31T04:31:14;98956.50;;;21.31;69.05
7376;BME280;3728;42.266;24.944;2023-08-31T04:33:41;98952.66;;;21.32;69.51
7376;BME280;3728;42.266;24.944;2023-08-31T04:36:09;98962.16;;;21.43;69.70
7376;BME280;3728;42.266;24.944;2023-08-31T04:38:37;98970.13;;;21.54;69.50
7376;BME280;3728;42.266;24.944;2023-08-31T04:41:04;98975.47;;;21.50;69.20
7376;BME280;3728;42.266;24.944;2023-08-31T04:43:32;98972.03;;;21.57;69.33
7376;BME280;3728;42.266;24.944;2023-08-31T04:46:00;98976.16;;;21.72;69.93
7376;BME280;3728;42.266;24.944;2023-08-31T04:48:27;98972.34;;;21.73;69.18
7376;BME280;3728;42.266;24.944;2023-08-31T04:50:57;98974.25;;;21.76;68.39
7376;BME280;3728;42.266;24.944;2023-08-31T04:53:25;98975.38;;;21.86;68.56
7376;BME280;3728;42.266;24.944;2023-08-31T04:55:52;98978.41;;;21.84;68.34
7376;BME280;3728;42.266;24.944;2023-08-31T04:58:19;98982.22;;;21.87;67.94
7376;BME280;3728;42.266;24.944;2023-08-31T05:00:47;98987.56;;;21.83;68.83
7376;BME280;3728;42.266;24.944;2023-08-31T05:03:14;98991.38;;;21.86;69.11
7376;BME280;3728;42.266;24.944;2023-08-31T05:05:42;98988.97;;;22.12;67.42
7376;BME280;3728;42.266;24.944;2023-08-31T05:08:10;98995.09;;;22.02;67.40
7376;BME280;3728;42.266;24.944;2023-08-31T05:10:37;98996.66;;;22.00;68.04
7376;BME280;3728;42.266;24.944;2023-08-31T05:13:05;98987.41;;;22.18;66.40
7376;BME280;3728;42.266;24.944;2023-08-31T05:15:32;98994.69;;;22.07;67.49
7376;BME280;3728;42.266;24.944;2023-08-31T05:20:27;99003.31;;;22.39;66.91
7376;BME280;3728;42.266;24.944;2023-08-31T05:22:54;99000.19;;;22.52;66.59
7376;BME280;3728;42.266;24.944;2023-08-31T05:25:21;99007.97;;;22.87;66.24
7376;BME280;3728;42.266;24.944;2023-08-31T05:27:48;98999.16;;;22.90;65.76
7376;BME280;3728;42.266;24.944;2023-08-31T05:30:15;98996.53;;;22.83;65.46
7376;BME280;3728;42.266;24.944;2023-08-31T05:32:43;98992.91;;;23.07;64.78
7376;BME280;3728;42.266;24.944;2023-08-31T05:35:10;98998.94;;;23.14;64.56
7376;BME280;3728;42.266;24.944;2023-08-31T05:37:37;98997.25;;;23.35;63.00
7376;BME280;3728;42.266;24.944;2023-08-31T05:40:05;98998.03;;;23.32;64.24
7376;BME280;3728;42.266;24.944;2023-08-31T05:42:33;98994.31;;;23.59;64.08
7376;BME280;3728;42.266;24.944;2023-08-31T05:45:00;98999.47;;;23.77;62.45
7376;BME280;3728;42.266;24.944;2023-08-31T05:47:27;99001.06;;;23.71;62.75
7376;BME280;3728;42.266;24.944;2023-08-31T05:49:54;99011.53;;;23.89;62.70
7376;BME280;3728;42.266;24.944;2023-08-31T05:52:22;99010.75;;;23.92;62.06
7376;BME280;3728;42.266;24.944;2023-08-31T05:54:48;99013.09;;;24.20;60.93
7376;BME280;3728;42.266;24.944;2023-08-31T05:57:19;99014.72;;;24.14;60.52
7376;BME280;3728;42.266;24.944;2023-08-31T05:59:48;99016.94;;;24.19;60.87
7376;BME280;3728;42.266;24.944;2023-08-31T06:02:15;99014.56;;;24.24;61.42
7376;BME280;3728;42.266;24.944;2023-08-31T06:04:42;99014.34;;;24.42;59.64
7376;BME280;3728;42.266;24.944;2023-08-31T06:07:10;99014.13;;;24.56;57.60
7376;BME280;3728;42.266;24.944;2023-08-31T06:09:37;99008.50;;;24.74;57.75
7376;BME280;3728;42.266;24.944;2023-08-31T06:12:05;99010.56;;;25.12;56.90
7376;BME280;3728;42.266;24.944;2023-08-31T06:14:33;99010.50;;;24.93;56.92
7376;BME280;3728;42.266;24.944;2023-08-31T06:17:00;99008.81;;;25.02;56.87
7376;BME280;3728;42.266;24.944;2023-08-31T06:19:27;99009.88;;;24.85;57.22
7376;BME280;3728;42.266;24.944;2023-08-31T06:21:54;99026.53;;;24.96;57.45
7376;BME280;3728;42.266;24.944;2023-08-31T06:24:21;99024.78;;;24.86;57.74
7376;BME280;3728;42.266;24.944;2023-08-31T06:26:48;99021.06;;;25.03;57.97
7376;BME280;3728;42.266;24.944;2023-08-31T06:29:15;99026.88;;;25.22;57.74
7376;BME280;3728;42.266;24.944;2023-08-31T06:31:42;99028.44;;;25.42;56.71
7376;BME280;3728;42.266;24.944;2023-08-31T06:34:10;99028.75;;;25.48;56.63
7376;BME280;3728;42.266;24.944;2023-08-31T06:36:37;99035.63;;;25.68;55.59
7376;BME280;3728;42.266;24.944;2023-08-31T06:39:06;99033.91;;;25.78;54.17
7376;BME280;3728;42.266;24.944;2023-08-31T06:41:33;99033.31;;;25.90;53.69
7376;BME280;3728;42.266;24.944;2023-08-31T06:44:02;99041.53;;;25.99;52.99
7376;BME280;3728;42.266;24.944;2023-08-31T06:46:29;99037.00;;;26.16;52.27
7376;BME280;3728;42.266;24.944;2023-08-31T06:48:56;99043.38;;;26.41;51.38
7376;BME280;3728;42.266;24.944;2023-08-31T06:51:23;99041.13;;;26.56;49.88
7376;BME280;3728;42.266;24.944;2023-08-31T06:53:51;99046.03;;;26.77;49.11
7376;BME280;3728;42.266;24.944;2023-08-31T06:56:18;99049.81;;;26.80;49.52
7376;BME280;3728;42.266;24.944;2023-08-31T06:58:45;99046.88;;;27.06;48.27
7376;BME280;3728;42.266;24.944;2023-08-31T07:01:12;99049.13;;;27.40;47.65
7376;BME280;3728;42.266;24.944;2023-08-31T07:03:40;99053.81;;;27.36;47.52
7376;BME280;3728;42.266;24.944;2023-08-31T07:06:07;99048.97;;;27.15;48.50
7376;BME280;3728;42.266;24.944;2023-08-31T07:08:34;99052.97;;;27.23;47.69
7376;BME280;3728;42.266;24.944;2023-08-31T07:11:03;99058.59;;;27.45;47.09
7376;BME280;3728;42.266;24.944;2023-08-31T07:13:30;99061.00;;;27.71;48.05
7376;BME280;3728;42.266;24.944;2023-08-31T07:15:58;99057.00;;;27.76;46.71
7376;BME280;3728;42.266;24.944;2023-08-31T07:18:25;99061.69;;;27.88;46.63
7376;BME280;3728;42.266;24.944;2023-08-31T07:20:52;99060.81;;;27.91;47.47
7376;BME280;3728;42.266;24.944;2023-08-31T07:23:20;99055.81;;;28.06;47.06
7376;BME280;3728;42.266;24.944;2023-08-31T07:25:47;99057.34;;;28.19;47.25
7376;BME280;3728;42.266;24.944;2023-08-31T07:28:14;99052.97;;;28.38;47.04
7376;BME280;3728;42.266;24.944;2023-08-31T07:30:41;99065.34;;;28.23;47.40
7376;BME280;3728;42.266;24.944;2023-08-31T07:33:08;99055.34;;;28.48;46.64
7376;BME280;3728;42.266;24.944;2023-08-31T07:35:56;99052.75;;;28.32;46.37
7376;BME280;3728;42.266;24.944;2023-08-31T07:38:25;99050.69;;;28.49;47.81
7376;BME280;3728;42.266;24.944;2023-08-31T07:40:53;99050.59;;;28.53;46.96
7376;BME280;3728;42.266;24.944;2023-08-31T07:43:20;99042.72;;;28.58;46.73
7376;BME280;3728;42.266;24.944;2023-08-31T07:45:48;99047.69;;;28.85;47.04
7376;BME280;3728;42.266;24.944;2023-08-31T07:48:16;99044.31;;;28.93;46.36
7376;BME280;3728;42.266;24.944;2023-08-31T07:50:43;99045.06;;;29.19;45.85
7376;BME280;3728;42.266;24.944;2023-08-31T07:53:11;99045.72;;;29.45;45.60
7376;BME280;3728;42.266;24.944;2023-08-31T07:55:39;99034.34;;;29.28;45.73
7376;BME280;3728;42.266;24.944;2023-08-31T07:58:06;99033.16;;;29.72;45.41
7376;BME280;3728;42.266;24.944;2023-08-31T08:00:33;99037.78;;;29.85;44.93
7376;BME280;3728;42.266;24.944;2023-08-31T08:03:01;99046.81;;;30.12;44.40
7376;BME280;3728;42.266;24.944;2023-08-31T08:05:29;99039.66;;;29.97;44.17
7376;BME280;3728;42.266;24.944;2023-08-31T08:07:56;99037.69;;;29.75;44.58
7376;BME280;3728;42.266;24.944;2023-08-31T08:10:25;99045.44;;;29.86;44.99
7376;BME280;3728;42.266;24.944;2023-08-31T08:12:53;99041.53;;;29.87;44.82
7376;BME280;3728;42.266;24.944;2023-08-31T08:15:20;99040.22;;;30.44;43.15
7376;BME280;3728;42.266;24.944;2023-08-31T08:17:48;99039.16;;;30.41;42.84
7376;BME280;3728;42.266;24.944;2023-08-31T08:20:15;99025.97;;;30.53;42.73
7376;BME280;3728;42.266;24.944;2023-08-31T08:22:42;99038.59;;;31.04;41.10
7376;BME280;3728;42.266;24.944;2023-08-31T08:25:11;99035.00;;;31.07;41.58
7376;BME280;3728;42.266;24.944;2023-08-31T08:27:38;99034.84;;;31.11;40.60
7376;BME280;3728;42.266;24.944;2023-08-31T08:30:07;99038.44;;;30.99;40.77
7376;BME280;3728;42.266;24.944;2023-08-31T08:32:34;99039.38;;;31.23;39.66
7376;BME280;3728;42.266;24.944;2023-08-31T08:35:02;99039.97;;;31.27;39.93
7376;BME280;3728;42.266;24.944;2023-08-31T08:37:31;99028.28;;;31.48;39.27
7376;BME280;3728;42.266;24.944;2023-08-31T08:40:02;99034.56;;;31.63;38.85
7376;BME280;3728;42.266;24.944;2023-08-31T08:42:32;99037.44;;;31.60;39.25
7376;BME280;3728;42.266;24.944;2023-08-31T08:45:08;99028.63;;;32.01;37.05
7376;BME280;3728;42.266;24.944;2023-08-31T08:47:46;99030.13;;;32.11;37.51
7376;BME280;3728;42.266;24.944;2023-08-31T08:50:13;99028.72;;;32.25;37.39
7376;BME280;3728;42.266;24.944;2023-08-31T08:52:43;99030.19;;;32.35;38.43
7376;BME280;3728;42.266;24.944;2023-08-31T08:55:11;99030.38;;;32.31;36.13
7376;BME280;3728;42.266;24.944;2023-08-31T08:57:38;99034.56;;;32.65;35.61
7376;BME280;3728;42.266;24.944;2023-08-31T09:00:06;99029.50;;;32.49;36.84
7376;BME280;3728;42.266;24.944;2023-08-31T09:02:34;99022.41;;;32.84;36.59
7376;BME280;3728;42.266;24.944;2023-08-31T09:05:01;99022.28;;;32.79;34.89
7376;BME280;3728;42.266;24.944;2023-08-31T09:07:30;99020.75;;;33.11;34.50
7376;BME280;3728;42.266;24.944;2023-08-31T09:09:59;99025.63;;;33.06;34.80
7376;BME280;3728;42.266;24.944;2023-08-31T09:12:26;99028.84;;;33.34;34.25
7376;BME280;3728;42.266;24.944;2023-08-31T09:15:00;99019.72;;;33.46;33.06
7376;BME280;3728;42.266;24.944;2023-08-31T09:17:42;99014.69;;;33.68;33.23
7376;BME280;3728;42.266;24.944;2023-08-31T09:20:14;99011.63;;;33.52;32.92
7376;BME280;3728;42.266;24.944;2023-08-31T09:22:43;99014.06;;;33.35;33.26
7376;BME280;3728;42.266;24.944;2023-08-31T09:25:15;99013.88;;;33.39;33.83
7376;BME280;3728;42.266;24.944;2023-08-31T09:27:43;99009.66;;;33.38;32.76
7376;BME280;3728;42.266;24.944;2023-08-31T09:30:11;99009.69;;;33.52;33.20
7376;BME280;3728;42.266;24.944;2023-08-31T09:32:39;99005.88;;;33.59;33.52
7376;BME280;3728;42.266;24.944;2023-08-31T09:35:08;99002.34;;;33.29;33.13
7376;BME280;3728;42.266;24.944;2023-08-31T09:37:57;99001.03;;;33.25;32.46
7376;BME280;3728;42.266;24.944;2023-08-31T09:40:25;98992.84;;;33.48;33.84
7376;BME280;3728;42.266;24.944;2023-08-31T09:42:52;98993.16;;;33.65;34.13
7376;BME280;3728;42.266;24.944;2023-08-31T09:45:26;98995.38;;;33.81;32.10
7376;BME280;3728;42.266;24.944;2023-08-31T09:48:11;99000.94;;;33.72;33.18
7376;BME280;3728;42.266;24.944;2023-08-31T09:50:43;99001.94;;;33.89;32.70
7376;BME280;3728;42.266;24.944;2023-08-31T09:53:12;99003.94;;;34.38;32.87
7376;BME280;3728;42.266;24.944;2023-08-31T09:55:43;98999.75;;;34.72;32.08
7376;BME280;3728;42.266;24.944;2023-08-31T09:58:11;99007.63;;;34.90;30.97
7376;BME280;3728;42.266;24.944;2023-08-31T10:00:43;99004.66;;;35.08;30.59
7376;BME280;3728;42.266;24.944;2023-08-31T10:03:13;99011.47;;;35.24;30.32
7376;BME280;3728;42.266;24.944;2023-08-31T10:05:48;99006.69;;;35.13;30.07
7376;BME280;3728;42.266;24.944;2023-08-31T10:08:19;99009.53;;;35.24;30.96
7376;BME280;3728;42.266;24.944;2023-08-31T10:10:48;98998.50;;;34.93;30.07
7376;BME280;3728;42.266;24.944;2023-08-31T10:13:15;99008.16;;;35.34;28.15
7376;BME280;3728;42.266;24.944;2023-08-31T10:15:46;99010.00;;;34.62;27.99
7376;BME280;3728;42.266;24.944;2023-08-31T10:18:16;98995.34;;;34.25;28.21
7376;BME280;3728;42.266;24.944;2023-08-31T10:20:44;98996.88;;;34.11;28.64
7376;BME280;3728;42.266;24.944;2023-08-31T10:23:13;98992.13;;;33.92;29.20
7376;BME280;3728;42.266;24.944;2023-08-31T10:28:20;98993.66;;;34.27;29.91
7376;BME280;3728;42.266;24.944;2023-08-31T10:31:04;98994.28;;;34.37;28.92
7376;BME280;3728;42.266;24.944;2023-08-31T10:33:46;98996.13;;;34.80;28.62
7376;BME280;3728;42.266;24.944;2023-08-31T10:36:22;98996.06;;;35.15;30.37
7376;BME280;3728;42.266;24.944;2023-08-31T10:41:25;99002.31;;;35.21;29.19
7376;BME280;3728;42.266;24.944;2023-08-31T10:43:57;99007.25;;;35.68;27.55
7376;BME280;3728;42.266;24.944;2023-08-31T10:49:12;99000.53;;;34.98;28.44
7376;BME280;3728;42.266;24.944;2023-08-31T10:51:47;98992.47;;;34.83;29.41
7376;BME280;3728;42.266;24.944;2023-08-31T10:54:22;98996.91;;;35.27;29.11
7376;BME280;3728;42.266;24.944;2023-08-31T11:05:16;98991.97;;;34.85;28.23
7376;BME280;3728;42.266;24.944;2023-08-31T11:07:50;98998.00;;;34.74;28.63
7376;BME280;3728;42.266;24.944;2023-08-31T11:10:25;98993.41;;;34.80;28.47
7376;BME280;3728;42.266;24.944;2023-08-31T11:12:55;98989.47;;;34.47;28.71
7376;BME280;3728;42.266;24.944;2023-08-31T11:15:27;98993.88;;;34.59;29.09
7376;BME280;3728;42.266;24.944;2023-08-31T11:18:00;98998.78;;;34.55;30.20
7376;BME280;3728;42.266;24.944;2023-08-31T11:20:27;98995.31;;;34.39;29.69
7376;BME280;3728;42.266;24.944;2023-08-31T11:22:58;98988.97;;;34.63;29.13
7376;BME280;3728;42.266;24.944;2023-08-31T11:25:26;98984.06;;;34.87;29.48
7376;BME280;3728;42.266;24.944;2023-08-31T11:28:02;98983.94;;;34.76;29.27
7376;BME280;3728;42.266;24.944;2023-08-31T11:30:37;98988.28;;;35.28;28.04
7376;BME280;3728;42.266;24.944;2023-08-31T11:33:07;98990.53;;;35.30;27.94
7376;BME280;3728;42.266;24.944;2023-08-31T11:35:40;98983.63;;;35.09;28.40
7376;BME280;3728;42.266;24.944;2023-08-31T11:38:14;98982.78;;;35.23;27.96
7376;BME280;3728;42.266;24.944;2023-08-31T11:40:42;98979.25;;;34.96;29.58
7376;BME280;3728;42.266;24.944;2023-08-31T11:43:09;98975.13;;;35.78;28.47
7376;BME280;3728;42.266;24.944;2023-08-31T11:45:38;98984.97;;;36.38;27.50
7376;BME280;3728;42.266;24.944;2023-08-31T11:48:07;98971.91;;;36.48;26.87
7376;BME280;3728;42.266;24.944;2023-08-31T11:50:37;98978.13;;;36.48;26.07
7376;BME280;3728;42.266;24.944;2023-08-31T11:53:08;98983.97;;;36.35;26.55
7376;BME280;3728;42.266;24.944;2023-08-31T11:55:49;98979.13;;;36.08;26.94
7376;BME280;3728;42.266;24.944;2023-08-31T11:58:18;98980.06;;;35.48;27.92
7376;BME280;3728;42.266;24.944;2023-08-31T12:00:54;98973.59;;;35.20;28.68
7376;BME280;3728;42.266;24.944;2023-08-31T12:03:24;98970.28;;;35.11;28.67
7376;BME280;3728;42.266;24.944;2023-08-31T12:06:05;98967.06;;;35.12;28.18
7376;BME280;3728;42.266;24.944;2023-08-31T12:08:33;98966.09;;;35.15;27.78
7376;BME280;3728;42.266;24.944;2023-08-31T12:11:00;98963.34;;;35.35;27.94
7376;BME280;3728;42.266;24.944;2023-08-31T12:13:29;98960.41;;;35.13;28.09
7376;BME280;3728;42.266;24.944;2023-08-31T12:15:57;98971.97;;;35.34;28.07
7376;BME280;3728;42.266;24.944;2023-08-31T12:18:30;98961.59;;;35.58;27.13
7376;BME280;3728;42.266;24.944;2023-08-31T12:21:01;98966.78;;;35.10;28.66
7376;BME280;3728;42.266;24.944;2023-08-31T12:23:30;98961.75;;;35.49;28.32
7376;BME280;3728;42.266;24.944;2023-08-31T12:25:59;98958.19;;;35.43;28.55
7376;BME280;3728;42.266;24.944;2023-08-31T12:28:26;98957.03;;;35.75;28.21
7376;BME280;3728;42.266;24.944;2023-08-31T12:30:54;98957.88;;;35.92;28.48
7376;BME280;3728;42.266;24.944;2023-08-31T12:33:23;98950.28;;;36.44;27.47
7376;BME280;3728;42.266;24.944;2023-08-31T12:35:52;98952.56;;;36.46;28.55
7376;BME280;3728;42.266;24.944;2023-08-31T12:38:19;98968.88;;;35.98;28.60
7376;BME280;3728;42.266;24.944;2023-08-31T12:40:46;98959.31;;;35.82;28.07
7376;BME280;3728;42.266;24.944;2023-08-31T12:43:15;98968.31;;;35.62;28.22
7376;BME280;3728;42.266;24.944;2023-08-31T12:45:43;98955.53;;;35.48;28.44
7376;BME280;3728;42.266;24.944;2023-08-31T12:48:11;98961.16;;;35.14;28.35
7376;BME280;3728;42.266;24.944;2023-08-31T12:50:38;98972.22;;;35.30;28.93
7376;BME280;3728;42.266;24.944;2023-08-31T12:53:06;98963.38;;;35.66;27.42
7376;BME280;3728;42.266;24.944;2023-08-31T12:55:34;98962.66;;;35.66;27.70
7376;BME280;3728;42.266;24.944;2023-08-31T12:58:05;98950.56;;;34.75;28.23
7376;BME280;3728;42.266;24.944;2023-08-31T13:00:33;98942.44;;;34.40;28.72
7376;BME280;3728;42.266;24.944;2023-08-31T13:03:02;98943.13;;;34.76;30.45
7376;BME280;3728;42.266;24.944;2023-08-31T13:05:31;98945.31;;;35.38;31.70
7376;BME280;3728;42.266;24.944;2023-08-31T13:07:59;98948.16;;;35.80;30.06
7376;BME280;3728;42.266;24.944;2023-08-31T13:10:26;98947.41;;;35.80;29.60
7376;BME280;3728;42.266;24.944;2023-08-31T13:12:54;98940.63;;;35.69;30.05
7376;BME280;3728;42.266;24.944;2023-08-31T13:15:21;98944.59;;;36.00;29.98
7376;BME280;3728;42.266;24.944;2023-08-31T13:17:48;98937.41;;;36.02;28.84
7376;BME280;3728;42.266;24.944;2023-08-31T13:20:18;98943.38;;;36.06;28.63
7376;BME280;3728;42.266;24.944;2023-08-31T13:22:45;98937.19;;;36.06;29.60
7376;BME280;3728;42.266;24.944;2023-08-31T13:25:13;98936.97;;;36.09;28.63
7376;BME280;3728;42.266;24.944;2023-08-31T13:27:42;98929.28;;;36.13;28.75
7376;BME280;3728;42.266;24.944;2023-08-31T13:30:13;98939.31;;;36.33;27.84
7376;BME280;3728;42.266;24.944;2023-08-31T13:32:40;98935.69;;;36.47;27.34
7376;BME280;3728;42.266;24.944;2023-08-31T13:35:09;98940.56;;;36.32;28.41
7376;BME280;3728;42.266;24.944;2023-08-31T13:37:39;98932.38;;;36.32;26.70
7376;BME280;3728;42.266;24.944;2023-08-31T13:40:09;98945.34;;;36.00;28.55
7376;BME280;3728;42.266;24.944;2023-08-31T13:42:53;98940.13;;;35.71;28.32
7376;BME280;3728;42.266;24.944;2023-08-31T13:45:22;98932.25;;;35.73;28.66
7376;BME280;3728;42.266;24.944;2023-08-31T13:47:53;98931.00;;;35.48;30.16
7376;BME280;3728;42.266;24.944;2023-08-31T13:50:20;98935.88;;;35.64;29.28